Time;durP1;ratioP1;P1;durP2;ratioP2;P2;SDS_P1;SDS_P2;PMS_P1;PMS_P2;Temp;Humidity;BMP_temperature;BMP_pressure;BME280_temperature;BME280_humidity;BME280_pressure;Samples;Min_cycle;Max_cycle;Signal;HPM_P1;HPM_P2
2021/09/10 00:00:11;;;;;;;20.38;12.20;;;;;;;17.86;90.08;96195.09;5057277;28;20692;-73
2021/09/10 00:02:38;;;;;;;19.00;11.73;;;;;;;17.90;88.80;96196.28;5057120;28;20201;-72
2021/09/10 00:05:08;;;;;;;18.02;10.63;;;;;;;18.11;87.34;96193.94;5056948;28;20224;-72
2021/09/10 00:07:35;;;;;;;14.07;9.52;;;;;;;17.68;87.30;96208.41;5056642;28;20231;-72
2021/09/10 00:10:02;;;;;;;17.92;11.52;;;;;;;17.68;88.31;96199.59;5056530;28;20866;-72
2021/09/10 00:12:28;;;;;;;14.20;10.05;;;;;;;17.72;87.14;96201.59;5057545;28;20208;-72
2021/09/10 00:14:54;;;;;;;18.90;10.35;;;;;;;17.77;87.16;96193.75;5057175;28;20200;-71
2021/09/10 00:17:21;;;;;;;18.38;11.35;;;;;;;17.60;89.78;96199.88;5056666;28;20435;-72
2021/09/10 00:19:47;;;;;;;20.05;11.35;;;;;;;17.83;88.24;96195.53;5056708;28;20208;-72
2021/09/10 00:22:15;;;;;;;16.83;11.20;;;;;;;17.97;88.44;96189.00;5055278;28;20201;-72
2021/09/10 00:24:41;;;;;;;17.75;11.57;;;;;;;17.88;88.19;96198.34;5056145;28;20204;-72
2021/09/10 00:27:08;;;;;;;16.80;11.55;;;;;;;17.82;88.86;96197.38;5055945;28;20791;-72
2021/09/10 00:29:34;;;;;;;16.75;10.70;;;;;;;17.61;88.07;96199.66;5056838;28;20200;-72
2021/09/10 00:32:01;;;;;;;17.50;11.45;;;;;;;17.71;88.23;96197.31;5057892;28;20544;-72
2021/09/10 00:34:27;;;;;;;19.23;11.43;;;;;;;17.77;88.29;96199.09;5056583;28;20201;-73
2021/09/10 00:36:53;;;;;;;17.67;11.38;;;;;;;17.69;88.55;96203.88;5056786;28;20622;-72
2021/09/10 00:39:22;;;;;;;19.33;11.30;;;;;;;17.92;88.21;96199.50;5057022;28;20197;-72
2021/09/10 00:41:49;;;;;;;20.58;11.93;;;;;;;17.85;88.58;96206.78;5057080;28;20208;-72
2021/09/10 00:44:16;;;;;;;20.50;12.98;;;;;;;17.86;89.69;96203.91;5057008;28;20200;-72
2021/09/10 00:46:43;;;;;;;20.73;11.98;;;;;;;17.78;89.14;96206.88;5055995;28;20231;-72
2021/09/10 00:49:10;;;;;;;17.17;11.38;;;;;;;17.59;89.01;96206.25;5056122;28;20555;-74
2021/09/10 00:51:36;;;;;;;20.73;11.43;;;;;;;17.64;88.98;96201.88;5056679;28;20193;-74
2021/09/10 00:54:03;;;;;;;16.83;11.18;;;;;;;17.60;89.40;96200.69;5056542;28;20303;-73
2021/09/10 00:56:31;;;;;;;19.92;12.57;;;;;;;17.84;89.50;96199.81;5055405;28;20231;-73
2021/09/10 00:59:00;;;;;;;17.92;12.07;;;;;;;17.71;88.93;96193.84;5056363;28;20216;-73
2021/09/10 01:01:27;;;;;;;19.52;13.05;;;;;;;17.77;88.90;96196.44;5056550;28;20971;-73
2021/09/10 01:03:53;;;;;;;19.80;11.88;;;;;;;17.76;88.65;96200.13;5056701;28;20200;-73
2021/09/10 01:06:22;;;;;;;22.30;11.57;;;;;;;17.78;88.52;96200.69;5055310;28;20220;-73
2021/09/10 01:08:51;;;;;;;18.83;10.98;;;;;;;17.71;88.23;96199.97;5056405;28;20254;-74
2021/09/10 01:11:18;;;;;;;17.45;11.60;;;;;;;17.74;87.94;96200.34;5056358;28;20200;-74
2021/09/10 01:13:47;;;;;;;14.02;10.20;;;;;;;17.83;87.35;96195.53;5056225;28;20207;-73
2021/09/10 01:16:13;;;;;;;17.77;10.40;;;;;;;17.57;87.74;96203.81;5055125;28;20928;-73
2021/09/10 01:18:40;;;;;;;17.92;11.70;;;;;;;17.44;88.70;96206.59;5056686;28;20231;-73
2021/09/10 01:21:06;;;;;;;18.75;11.82;;;;;;;17.41;89.59;96208.88;5059179;28;20626;-73
2021/09/10 01:23:33;;;;;;;20.95;12.05;;;;;;;17.37;89.55;96205.84;5057321;28;20211;-72
2021/09/10 01:26:00;;;;;;;16.88;11.65;;;;;;;17.63;88.91;96205.59;5059011;28;20227;-73
2021/09/10 01:28:27;;;;;;;20.83;12.80;;;;;;;17.44;89.99;96208.47;5059932;28;20235;-73
2021/09/10 01:30:53;;;;;;;20.98;13.10;;;;;;;17.38;91.59;96204.81;5058875;28;20200;-73
2021/09/10 01:33:20;;;;;;;26.65;15.57;;;;;;;17.52;92.79;96208.97;5060315;28;20200;-74
2021/09/10 01:35:46;;;;;;;22.35;14.02;;;;;;;17.57;91.12;96209.13;5059242;28;20243;-73
2021/09/10 01:38:13;;;;;;;25.13;16.17;;;;;;;17.63;92.16;96213.59;5058726;28;20228;-73
2021/09/10 01:40:40;;;;;;;21.67;13.93;;;;;;;17.65;90.67;96210.69;5059841;28;20213;-73
2021/09/10 01:43:08;;;;;;;23.33;14.45;;;;;;;17.75;91.51;96206.47;5059462;28;20227;-73
2021/09/10 01:45:35;;;;;;;26.15;16.02;;;;;;;17.76;91.07;96214.25;5058151;28;20228;-73
2021/09/10 01:48:01;;;;;;;23.63;14.02;;;;;;;17.76;90.13;96216.13;5058640;28;20221;-74
2021/09/10 01:50:28;;;;;;;26.98;16.00;;;;;;;17.83;90.16;96204.34;5059993;28;20616;-73
2021/09/10 01:52:54;;;;;;;24.13;15.00;;;;;;;17.91;89.21;96204.03;5058705;28;20209;-74
2021/09/10 01:55:21;;;;;;;23.95;14.73;;;;;;;17.86;89.43;96209.22;5058166;28;20578;-73
2021/09/10 01:57:50;;;;;;;20.13;13.18;;;;;;;17.91;88.66;96201.38;5058854;28;20259;-73
2021/09/10 02:00:20;;;;;;;24.23;14.05;;;;;;;17.82;88.65;96209.91;5059301;28;20204;-72
2021/09/10 02:02:46;;;;;;;20.75;13.00;;;;;;;17.72;87.72;96209.59;5059155;28;20200;-72
2021/09/10 02:05:14;;;;;;;18.30;11.80;;;;;;;17.50;87.36;96207.56;5058134;28;20196;-72
2021/09/10 02:07:40;;;;;;;20.30;11.77;;;;;;;17.33;87.86;96211.84;5055689;28;20220;-72
2021/09/10 02:10:11;;;;;;;20.80;12.73;;;;;;;17.62;88.08;96206.63;5059255;28;20200;-72
2021/09/10 02:12:39;;;;;;;23.75;12.88;;;;;;;17.46;88.52;96209.84;5059109;28;20204;-72
2021/09/10 02:15:07;;;;;;;21.90;13.45;;;;;;;17.63;88.69;96210.09;5059105;28;20220;-72
2021/09/10 02:17:34;;;;;;;20.25;13.02;;;;;;;17.59;88.62;96219.56;5057628;28;20225;-72
2021/09/10 02:20:01;;;;;;;18.50;12.15;;;;;;;17.29;87.75;96214.13;5057693;28;20697;-72
2021/09/10 02:22:27;;;;;;;18.52;11.18;;;;;;;17.15;87.67;96220.56;5055321;28;20200;-72
2021/09/10 02:24:54;;;;;;;18.50;11.48;;;;;;;17.22;88.01;96210.66;5056477;28;20204;-72
2021/09/10 02:27:21;;;;;;;20.15;12.75;;;;;;;17.21;88.63;96218.88;5057437;28;20228;-72
2021/09/10 02:29:48;;;;;;;23.83;12.88;;;;;;;17.14;89.96;96218.09;5058312;28;20201;-72
2021/09/10 02:32:14;;;;;;;21.98;14.05;;;;;;;17.04;90.51;96211.66;5057945;28;20196;-72
2021/09/10 02:34:42;;;;;;;22.20;14.73;;;;;;;17.31;89.79;96205.91;5058247;28;20204;-72
2021/09/10 02:37:08;;;;;;;28.52;17.20;;;;;;;17.39;90.29;96214.44;5057495;28;20227;-72
2021/09/10 02:39:35;;;;;;;26.50;16.50;;;;;;;17.30;91.15;96213.09;5057865;28;20204;-71
2021/09/10 02:42:01;;;;;;;25.80;16.52;;;;;;;17.20;90.92;96210.06;5059176;28;20208;-72
2021/09/10 02:44:28;;;;;;;25.80;15.40;;;;;;;17.20;89.92;96211.91;5058971;28;20207;-72
2021/09/10 02:46:54;;;;;;;25.33;16.35;;;;;;;17.26;89.74;96211.06;5057514;28;20228;-72
2021/09/10 02:49:22;;;;;;;24.30;15.27;;;;;;;17.19;89.63;96216.41;5058875;28;20201;-72
2021/09/10 02:51:49;;;;;;;27.00;15.20;;;;;;;17.27;89.56;96205.53;5059296;28;20196;-72
2021/09/10 02:54:16;;;;;;;27.25;15.40;;;;;;;17.06;89.67;96210.41;5057884;28;20226;-72
2021/09/10 02:56:42;;;;;;;27.45;16.42;;;;;;;17.19;90.07;96204.97;5057729;28;20220;-71
2021/09/10 02:59:09;;;;;;;25.35;16.38;;;;;;;17.20;90.33;96202.06;5057835;28;20208;-71
2021/09/10 03:01:35;;;;;;;24.98;15.82;;;;;;;17.06;90.29;96209.59;5058246;28;20669;-72
2021/09/10 03:04:02;;;;;;;27.70;15.68;;;;;;;17.22;89.51;96196.53;5057837;28;20769;-72
2021/09/10 03:06:28;;;;;;;24.70;16.02;;;;;;;17.22;89.69;96194.69;5057491;28;20228;-72
2021/09/10 03:08:56;;;;;;;25.73;16.45;;;;;;;17.45;90.75;96188.75;5057771;28;20201;-71
2021/09/10 03:11:22;;;;;;;29.45;16.95;;;;;;;17.29;90.90;96190.13;5058481;28;20212;-72
2021/09/10 03:13:49;;;;;;;24.38;15.68;;;;;;;17.39;89.82;96193.13;5057527;28;20653;-72
2021/09/10 03:16:15;;;;;;;23.50;15.70;;;;;;;17.34;89.12;96192.97;5056649;28;20197;-72
2021/09/10 03:18:42;;;;;;;24.02;13.88;;;;;;;17.17;87.91;96196.34;5057470;28;20211;-72
2021/09/10 03:21:08;;;;;;;23.30;14.20;;;;;;;17.05;88.41;96189.31;5057461;28;20201;-72
2021/09/10 03:23:35;;;;;;;25.02;14.10;;;;;;;17.11;88.15;96192.72;5055485;28;20211;-72
2021/09/10 03:26:02;;;;;;;23.98;14.38;;;;;;;17.11;88.39;96191.94;5057056;28;20231;-72
2021/09/10 03:28:29;;;;;;;25.25;15.05;;;;;;;16.96;88.03;96198.59;5057367;28;20240;-72
2021/09/10 03:30:55;;;;;;;25.20;14.73;;;;;;;16.80;88.78;96196.47;5057597;28;20578;-72
2021/09/10 03:33:22;;;;;;;25.40;14.55;;;;;;;16.83;88.71;96196.06;5058155;28;20204;-72
2021/09/10 03:35:50;;;;;;;23.73;14.60;;;;;;;16.79;88.19;96202.81;5056681;28;20211;-72
2021/09/10 03:38:16;;;;;;;24.65;14.80;;;;;;;16.73;88.66;96206.34;5057630;28;20252;-72
2021/09/10 03:40:43;;;;;;;22.02;13.95;;;;;;;16.84;87.57;96200.31;5057579;28;20208;-72
2021/09/10 03:43:11;;;;;;;23.85;14.23;;;;;;;16.85;87.95;96199.28;5056753;28;20204;-71
2021/09/10 03:45:37;;;;;;;22.10;13.77;;;;;;;16.69;88.21;96197.19;5056442;28;20204;-72
2021/09/10 03:48:04;;;;;;;23.30;14.13;;;;;;;16.63;88.82;96193.50;5057795;28;20220;-71
2021/09/10 03:50:31;;;;;;;20.95;13.02;;;;;;;16.61;88.22;96192.94;5057851;28;20212;-72
2021/09/10 03:52:57;;;;;;;22.10;14.00;;;;;;;16.54;88.91;96194.00;5057719;28;20665;-71
2021/09/10 03:55:24;;;;;;;27.88;15.50;;;;;;;16.51;90.12;96194.44;5057050;28;20223;-72
2021/09/10 03:57:51;;;;;;;24.60;13.68;;;;;;;16.50;89.38;96192.78;5056855;28;20220;-72
2021/09/10 04:00:19;;;;;;;20.08;12.93;;;;;;;16.59;88.75;96196.81;5057003;28;20669;-71
2021/09/10 04:02:45;;;;;;;25.38;14.68;;;;;;;16.41;91.03;96202.06;5057880;28;20201;-72
2021/09/10 04:05:12;;;;;;;24.35;12.95;;;;;;;16.62;89.84;96201.72;5056623;28;20196;-71
2021/09/10 04:07:39;;;;;;;24.05;13.30;;;;;;;16.72;88.19;96204.72;5056386;28;21073;-72
2021/09/10 04:10:07;;;;;;;19.52;12.20;;;;;;;16.56;88.68;96197.28;5057145;28;20200;-72
2021/09/10 04:12:33;;;;;;;23.05;12.57;;;;;;;16.56;87.57;96199.94;5057187;28;20744;-72
2021/09/10 04:15:00;;;;;;;25.45;15.90;;;;;;;16.72;88.82;96197.53;5056615;28;20208;-71
2021/09/10 04:17:27;;;;;;;28.17;17.00;;;;;;;16.94;90.23;96190.84;5056490;28;20767;-72
2021/09/10 04:19:54;;;;;;;28.90;17.42;;;;;;;16.86;90.58;96192.94;5056282;28;20677;-72
2021/09/10 04:22:20;;;;;;;31.00;16.40;;;;;;;16.93;90.22;96199.84;5054046;28;20200;-71
2021/09/10 04:24:47;;;;;;;24.83;15.88;;;;;;;17.00;90.56;96202.47;5057076;28;20201;-71
2021/09/10 04:27:14;;;;;;;25.85;15.13;;;;;;;17.07;89.56;96198.72;5055657;28;20693;-72
2021/09/10 04:29:40;;;;;;;24.38;14.40;;;;;;;16.83;89.43;96204.03;5056941;28;20204;-71
2021/09/10 04:32:07;;;;;;;29.65;17.02;;;;;;;17.01;90.32;96204.09;5056983;28;20200;-72
2021/09/10 04:34:35;;;;;;;27.00;16.27;;;;;;;17.12;90.58;96198.88;5057086;28;20200;-72
2021/09/10 04:37:02;;;;;;;27.10;16.88;;;;;;;17.09;89.88;96204.63;5055889;28;20217;-72
2021/09/10 04:39:28;;;;;;;27.08;15.07;;;;;;;17.11;89.44;96203.38;5057151;28;20210;-72
2021/09/10 04:41:55;;;;;;;21.55;13.70;;;;;;;17.12;88.53;96209.53;5056580;28;21140;-71
2021/09/10 04:44:21;;;;;;;27.10;15.32;;;;;;;17.04;89.30;96211.66;5057628;28;20196;-72
2021/09/10 04:46:48;;;;;;;24.38;15.50;;;;;;;17.20;89.06;96206.59;5055423;28;20596;-72
2021/09/10 04:49:14;;;;;;;23.73;13.93;;;;;;;17.05;88.85;96218.59;5056876;28;20197;-71
2021/09/10 04:51:42;;;;;;;29.27;13.65;;;;;;;17.09;88.99;96213.44;5056567;28;20584;-72
2021/09/10 04:54:09;;;;;;;23.00;13.07;;;;;;;16.97;89.47;96208.19;5056449;28;20204;-72
2021/09/10 04:56:36;;;;;;;25.40;13.80;;;;;;;16.94;90.31;96211.31;5058881;28;21223;-72
2021/09/10 04:59:02;;;;;;;24.30;14.20;;;;;;;17.06;90.36;96215.72;5060651;28;20196;-72
2021/09/10 05:01:29;;;;;;;22.80;14.23;;;;;;;17.04;90.76;96207.13;5059810;28;20200;-72
2021/09/10 05:03:56;;;;;;;23.92;14.10;;;;;;;17.08;90.58;96207.50;5060174;28;20277;-72
2021/09/10 05:06:22;;;;;;;24.55;14.23;;;;;;;17.19;89.98;96204.97;5059695;28;20212;-72
2021/09/10 05:08:50;;;;;;;22.40;13.68;;;;;;;17.29;89.73;96200.00;5059871;28;20201;-71
2021/09/10 05:11:17;;;;;;;26.20;14.45;;;;;;;17.17;90.02;96207.84;5059949;28;20212;-72
2021/09/10 05:13:43;;;;;;;24.88;13.93;;;;;;;17.23;89.87;96203.47;5060437;28;20699;-71
2021/09/10 05:16:10;;;;;;;22.63;13.48;;;;;;;17.20;89.56;96206.59;5059367;28;20197;-72
2021/09/10 05:18:36;;;;;;;21.67;13.48;;;;;;;17.01;89.89;96206.75;5059968;28;20204;-72
2021/09/10 05:21:02;;;;;;;26.08;13.60;;;;;;;17.08;90.00;96209.16;5059872;28;20212;-72
2021/09/10 05:23:29;;;;;;;23.80;14.20;;;;;;;17.20;89.85;96203.94;5056854;28;20208;-72
2021/09/10 05:25:57;;;;;;;22.52;14.18;;;;;;;17.22;91.07;96205.34;5059090;28;20204;-72
2021/09/10 05:28:23;;;;;;;20.75;13.82;;;;;;;17.15;91.07;96209.09;5059139;28;20254;-72
2021/09/10 05:30:51;;;;;;;23.50;14.98;;;;;;;17.39;90.37;96205.63;5059447;28;20681;-71
2021/09/10 05:33:17;;;;;;;28.90;15.02;;;;;;;17.56;90.04;96212.81;5059458;28;20200;-72
2021/09/10 05:35:44;;;;;;;25.13;15.88;;;;;;;17.53;90.46;96213.28;5058273;28;20205;-72
2021/09/10 05:38:10;;;;;;;28.70;16.27;;;;;;;17.61;90.08;96210.31;5059124;28;20217;-71
2021/09/10 05:40:37;;;;;;;29.38;16.23;;;;;;;17.72;89.91;96209.59;5059894;28;20201;-72
2021/09/10 05:43:05;;;;;;;27.63;17.13;;;;;;;17.87;90.41;96207.38;5058845;28;20676;-72
2021/09/10 05:45:31;;;;;;;31.13;16.63;;;;;;;17.81;90.42;96216.28;5058752;28;21100;-72
2021/09/10 05:47:58;;;;;;;27.25;16.83;;;;;;;17.82;90.05;96212.56;5058753;28;20228;-72
2021/09/10 05:50:24;;;;;;;25.25;15.90;;;;;;;17.99;90.03;96216.28;5059276;28;20208;-72
2021/09/10 05:52:51;;;;;;;25.27;15.45;;;;;;;18.00;90.03;96213.38;5059055;28;20291;-72
2021/09/10 05:55:17;;;;;;;27.20;16.58;;;;;;;18.10;89.61;96216.34;5058295;28;20227;-72
2021/09/10 05:57:44;;;;;;;27.83;15.88;;;;;;;18.16;89.52;96209.28;5059491;28;20231;-72
2021/09/10 06:00:13;;;;;;;28.15;16.67;;;;;;;18.24;89.88;96217.00;5059021;28;20212;-72
2021/09/10 06:02:39;;;;;;;27.17;16.10;;;;;;;18.10;90.41;96220.84;5058970;28;20291;-72
2021/09/10 06:05:07;;;;;;;27.67;16.63;;;;;;;18.24;89.80;96217.00;5058731;28;20297;-72
2021/09/10 06:07:33;;;;;;;25.02;16.15;;;;;;;18.26;89.85;96214.94;5058304;28;20224;-71
2021/09/10 06:10:00;;;;;;;26.52;16.83;;;;;;;18.31;89.42;96215.09;5058242;28;20593;-72
2021/09/10 06:12:26;;;;;;;30.05;17.10;;;;;;;18.27;89.44;96211.25;5059442;28;20205;-72
2021/09/10 06:14:53;;;;;;;26.65;16.50;;;;;;;18.26;89.77;96215.75;5058704;28;20201;-71
2021/09/10 06:17:21;;;;;;;25.42;16.25;;;;;;;18.42;89.83;96215.94;5057996;28;20564;-71
2021/09/10 06:19:47;;;;;;;29.92;16.73;;;;;;;18.08;90.88;96215.72;5058010;28;20226;-72
2021/09/10 06:22:15;;;;;;;24.95;16.63;;;;;;;18.15;90.44;96218.31;5063814;28;20201;-72
2021/09/10 06:24:42;;;;;;;30.48;16.88;;;;;;;18.25;90.06;96219.44;5071478;28;20232;-72
2021/09/10 06:27:08;;;;;;;27.70;15.85;;;;;;;18.09;90.93;96228.03;5063798;28;20236;-71
2021/09/10 06:29:35;;;;;;;26.50;16.45;;;;;;;17.97;92.09;96231.66;5067855;28;20212;-72
2021/09/10 06:32:01;;;;;;;27.42;16.63;;;;;;;17.96;92.14;96222.84;5071541;28;20220;-72
2021/09/10 06:34:29;;;;;;;26.58;16.13;;;;;;;18.29;91.90;96230.50;5070646;28;20212;-72
2021/09/10 06:36:56;;;;;;;29.23;16.45;;;;;;;18.21;92.09;96225.47;5070566;28;20224;-72
2021/09/10 06:39:23;;;;;;;29.33;16.83;;;;;;;18.35;91.37;96225.06;5069587;28;20596;-72
2021/09/10 06:41:49;;;;;;;26.60;16.55;;;;;;;18.45;90.67;96225.34;5071343;28;20208;-72
2021/09/10 06:44:16;;;;;;;32.03;16.73;;;;;;;18.48;91.45;96227.56;5070635;28;20204;-72
2021/09/10 06:46:42;;;;;;;29.17;17.75;;;;;;;18.55;89.75;96228.31;5070233;28;20233;-73
2021/09/10 06:49:09;;;;;;;27.38;16.05;;;;;;;18.91;88.67;96229.00;5070634;28;20208;-73
2021/09/10 06:51:36;;;;;;;29.23;17.52;;;;;;;19.04;87.97;96231.47;5071880;28;20200;-72
2021/09/10 06:54:03;;;;;;;28.95;17.00;;;;;;;19.20;87.56;96238.84;5067206;28;20201;-72
2021/09/10 06:56:29;;;;;;;30.20;17.58;;;;;;;19.17;86.27;96231.28;5059004;28;20674;-71
2021/09/10 06:58:56;;;;;;;31.35;15.85;;;;;;;19.08;86.30;96233.50;5058188;28;20208;-72
2021/09/10 07:01:22;;;;;;;31.45;16.27;;;;;;;19.30;85.55;96237.25;5056924;28;20224;-72
2021/09/10 07:03:49;;;;;;;33.35;15.38;;;;;;;19.32;85.11;96243.19;5058042;28;20196;-72
2021/09/10 07:06:15;;;;;;;21.17;13.13;;;;;;;19.27;84.28;96236.88;5056841;28;20204;-72
2021/09/10 07:08:43;;;;;;;23.02;13.70;;;;;;;19.75;83.07;96233.75;5057401;28;20227;-72
2021/09/10 07:11:10;;;;;;;25.52;13.73;;;;;;;19.89;82.77;96229.00;5057385;28;20207;-72
2021/09/10 07:13:36;;;;;;;20.42;13.15;;;;;;;19.81;81.42;96234.72;5057958;28;20208;-72
2021/09/10 07:16:03;;;;;;;21.58;13.75;;;;;;;20.11;81.51;96232.72;5055731;28;20197;-72
2021/09/10 07:18:30;;;;;;;21.85;13.60;;;;;;;20.14;81.08;96230.38;5056402;28;20227;-72
2021/09/10 07:20:56;;;;;;;25.67;14.73;;;;;;;20.37;79.91;96238.38;5056939;28;20204;-72
2021/09/10 07:23:22;;;;;;;23.65;14.07;;;;;;;20.56;79.24;96239.81;5053350;28;20583;-72
2021/09/10 07:25:50;;;;;;;20.30;13.35;;;;;;;20.65;79.59;96241.88;5056002;28;20557;-72
2021/09/10 07:28:17;;;;;;;26.25;14.60;;;;;;;20.01;80.18;96248.53;5056466;28;20228;-72
2021/09/10 07:30:43;;;;;;;21.95;14.48;;;;;;;20.06;80.96;96245.97;5057218;28;20673;-71
2021/09/10 07:33:10;;;;;;;20.65;14.00;;;;;;;20.10;80.55;96247.97;5056761;28;20200;-71
2021/09/10 07:35:36;;;;;;;21.10;13.43;;;;;;;20.30;80.32;96248.38;5056499;28;20212;-71
2021/09/10 07:38:03;;;;;;;19.85;13.50;;;;;;;20.37;80.79;96257.09;5056386;28;20216;-72
2021/09/10 07:40:29;;;;;;;22.10;13.90;;;;;;;20.54;79.99;96249.94;5056671;28;20227;-71
2021/09/10 07:42:57;;;;;;;24.45;13.98;;;;;;;20.73;79.99;96246.06;5056924;28;20391;-72
2021/09/10 07:45:23;;;;;;;21.98;13.73;;;;;;;20.60;79.37;96251.69;5057260;28;20208;-71
2021/09/10 07:47:50;;;;;;;21.33;13.05;;;;;;;20.91;78.22;96242.16;5055899;28;20585;-71
2021/09/10 07:50:17;;;;;;;20.75;13.05;;;;;;;20.98;78.61;96250.84;5056426;28;20973;-71
2021/09/10 07:52:43;;;;;;;18.27;12.73;;;;;;;21.06;77.19;96247.75;5057115;28;20204;-72
2021/09/10 07:55:10;;;;;;;19.73;13.27;;;;;;;21.20;78.54;96254.44;5056376;28;20696;-72
2021/09/10 07:57:36;;;;;;;20.50;12.38;;;;;;;21.13;77.87;96251.13;5055433;28;20735;-72
2021/09/10 08:00:06;;;;;;;19.30;12.38;;;;;;;21.85;77.86;96252.84;5057176;28;20200;-72
2021/09/10 08:02:32;;;;;;;17.73;12.48;;;;;;;21.53;76.85;96257.97;5056461;28;20204;-72
2021/09/10 08:04:59;;;;;;;19.58;12.65;;;;;;;21.41;75.87;96255.59;5055519;28;20200;-72
2021/09/10 08:07:26;;;;;;;18.80;12.27;;;;;;;21.24;76.06;96258.25;5054694;28;20465;-72
2021/09/10 08:09:52;;;;;;;17.98;12.50;;;;;;;21.65;75.81;96253.38;5056177;28;20196;-72
2021/09/10 08:12:19;;;;;;;21.60;12.10;;;;;;;21.75;76.70;96255.38;5055904;28;20215;-72
2021/09/10 08:14:45;;;;;;;20.05;12.38;;;;;;;21.69;74.43;96254.50;5056644;28;20203;-73
2021/09/10 08:17:13;;;;;;;19.48;12.15;;;;;;;21.81;74.63;96254.41;5055239;28;20658;-73
2021/09/10 08:19:40;;;;;;;18.83;12.27;;;;;;;22.00;76.00;96261.13;5055939;28;20204;-73
2021/09/10 08:22:06;;;;;;;19.23;11.50;;;;;;;22.18;74.55;96265.13;5054359;28;20204;-72
2021/09/10 08:24:33;;;;;;;19.40;11.65;;;;;;;22.31;72.96;96259.47;5055292;28;20219;-72
2021/09/10 08:26:59;;;;;;;21.45;12.15;;;;;;;22.07;73.86;96271.44;5055660;28;20704;-72
2021/09/10 08:29:26;;;;;;;20.30;11.82;;;;;;;21.77;75.47;96272.06;5058938;28;20228;-72
2021/09/10 08:31:52;;;;;;;18.85;11.80;;;;;;;22.17;75.87;96276.97;5060731;28;20208;-72
2021/09/10 08:34:20;;;;;;;21.27;11.90;;;;;;;22.32;75.35;96271.81;5060977;28;20201;-72
2021/09/10 08:36:46;;;;;;;19.52;12.13;;;;;;;22.02;73.64;96275.94;5060329;28;20231;-72
2021/09/10 08:39:13;;;;;;;19.13;11.18;;;;;;;22.25;73.22;96276.53;5060360;28;20192;-72
2021/09/10 08:41:40;;;;;;;20.88;11.85;;;;;;;22.21;73.56;96280.78;5060716;28;20201;-72
2021/09/10 08:44:07;;;;;;;16.67;11.52;;;;;;;22.05;73.54;96276.22;5057762;28;20208;-72
2021/09/10 08:46:36;;;;;;;20.10;12.95;;;;;;;22.47;72.87;96280.06;5059146;28;20236;-72
2021/09/10 08:49:04;;;;;;;19.80;12.38;;;;;;;22.53;73.02;96284.44;5060599;28;20417;-72
2021/09/10 08:51:32;;;;;;;20.67;12.48;;;;;;;22.68;72.45;96281.94;5060499;28;20207;-72
2021/09/10 08:53:58;;;;;;;18.10;12.10;;;;;;;22.53;72.73;96281.75;5060235;28;21328;-73
2021/09/10 08:56:25;;;;;;;17.85;11.65;;;;;;;22.71;72.42;96289.50;5059901;28;20586;-73
2021/09/10 08:58:51;;;;;;;16.98;11.68;;;;;;;22.85;70.04;96277.31;5060113;28;20930;-73
2021/09/10 09:01:18;;;;;;;20.05;11.73;;;;;;;22.78;69.70;96274.00;5059330;28;20204;-73
2021/09/10 09:03:44;;;;;;;19.13;12.13;;;;;;;22.86;71.04;96278.91;5060218;28;20215;-72
2021/09/10 09:06:11;;;;;;;17.98;11.80;;;;;;;22.82;70.30;96280.50;5057735;28;20211;-72
2021/09/10 09:08:40;;;;;;;17.98;11.32;;;;;;;23.08;69.23;96277.06;5058556;28;20220;-72
2021/09/10 09:11:09;;;;;;;18.27;11.82;;;;;;;23.32;70.46;96282.69;5059457;28;20695;-73
2021/09/10 09:13:38;;;;;;;18.40;11.70;;;;;;;23.21;70.16;96266.69;5059904;28;20577;-72
2021/09/10 09:16:23;;;;;;;17.77;11.23;;;;;;;23.78;68.82;96271.28;5058900;28;20197;-72
2021/09/10 09:18:52;;;;;;;17.77;11.25;;;;;;;23.81;69.13;96270.75;5058747;28;20679;-73
2021/09/10 09:21:23;;;;;;;16.45;11.15;;;;;;;23.85;69.93;96276.44;5059779;28;20534;-73
2021/09/10 09:23:53;;;;;;;17.17;11.13;;;;;;;23.92;67.39;96275.16;5055632;28;20205;-73
2021/09/10 09:26:21;;;;;;;19.60;11.27;;;;;;;23.91;67.93;96276.22;5058352;28;20612;-73
2021/09/10 09:28:48;;;;;;;16.55;11.18;;;;;;;23.89;67.79;96275.66;5059049;28;20372;-72
2021/09/10 09:31:19;;;;;;;16.33;10.25;;;;;;;24.39;68.29;96270.59;5058959;28;20208;-73
2021/09/10 09:33:45;;;;;;;17.38;11.07;;;;;;;24.04;68.90;96267.69;5059374;28;20209;-73
2021/09/10 09:36:14;;;;;;;18.50;11.23;;;;;;;24.37;67.20;96272.75;5059200;28;20471;-72
2021/09/10 09:38:43;;;;;;;15.82;10.45;;;;;;;24.22;65.63;96265.41;5059788;28;20529;-73
2021/09/10 09:41:13;;;;;;;17.23;9.75;;;;;;;24.55;66.99;96262.34;5058533;28;20890;-73
2021/09/10 09:43:41;;;;;;;15.00;10.07;;;;;;;24.46;64.38;96265.81;5059062;28;20211;-73
2021/09/10 09:46:09;;;;;;;19.13;10.35;;;;;;;24.42;65.95;96256.63;5057672;28;20208;-73
2021/09/10 09:48:38;;;;;;;14.40;10.13;;;;;;;24.48;66.48;96263.66;5059574;28;20232;-73
2021/09/10 09:51:05;;;;;;;14.70;9.38;;;;;;;24.46;64.11;96266.63;5058778;28;20649;-73
2021/09/10 09:53:32;;;;;;;16.30;9.00;;;;;;;24.87;65.67;96266.53;5058635;28;20208;-73
2021/09/10 09:56:01;;;;;;;14.57;9.90;;;;;;;24.90;64.00;96268.69;5057508;28;20223;-73
2021/09/10 09:58:31;;;;;;;14.43;9.57;;;;;;;25.36;63.96;96267.75;5059330;28;20315;-73
2021/09/10 10:00:58;;;;;;;14.05;9.63;;;;;;;25.13;62.99;96259.31;5058526;28;20278;-73
2021/09/10 10:03:24;;;;;;;13.55;9.00;;;;;;;25.33;62.35;96262.88;5058293;28;20547;-73
2021/09/10 10:05:59;;;;;;;13.93;9.35;;;;;;;25.38;61.70;96254.78;5057390;28;20207;-73
2021/09/10 10:08:29;;;;;;;12.55;9.07;;;;;;;25.36;63.17;96259.66;5059312;28;20613;-73
2021/09/10 10:11:10;;;;;;;12.55;8.80;;;;;;;25.58;62.45;96254.81;5058375;28;20200;-74
2021/09/10 10:13:38;;;;;;;15.05;8.77;;;;;;;25.66;61.59;96259.66;5058589;28;20204;-73
2021/09/10 10:16:04;;;;;;;11.85;8.23;;;;;;;25.64;60.02;96265.34;5057912;28;20204;-73
2021/09/10 10:18:43;;;;;;;16.13;8.98;;;;;;;25.76;60.41;96257.81;5057789;28;20726;-73
2021/09/10 10:21:11;;;;;;;13.90;8.15;;;;;;;25.51;60.90;96259.66;5057171;28;20220;-73
2021/09/10 10:23:57;;;;;;;10.57;7.55;;;;;;;26.30;59.84;96256.94;5055579;28;20200;-74
2021/09/10 10:26:38;;;;;;;14.88;8.63;;;;;;;26.30;58.56;96256.09;5056808;28;20208;-74
2021/09/10 10:29:18;;;;;;;15.35;7.90;;;;;;;26.32;57.34;96246.66;5058211;28;20235;-73
2021/09/10 10:32:11;;;;;;;14.48;7.85;;;;;;;26.38;58.08;96242.88;5058233;28;20200;-73
2021/09/10 10:35:18;;;;;;;14.15;8.05;;;;;;;26.46;58.73;96250.41;4999067;28;20593;-73
2021/09/10 10:37:46;;;;;;;14.20;7.55;;;;;;;26.03;55.59;96242.94;5058457;28;20313;-73
2021/09/10 10:40:27;;;;;;;11.02;7.10;;;;;;;26.31;56.36;96255.03;5057922;28;20736;-73
2021/09/10 10:42:55;;;;;;;13.30;7.38;;;;;;;26.30;57.47;96246.13;5058141;28;20672;-73
2021/09/10 10:45:57;;;;;;;9.27;6.28;;;;;;;26.20;52.75;96242.66;5057307;28;20204;-74
2021/09/10 10:48:53;;;;;;;10.98;6.72;;;;;;;26.53;54.56;96240.94;5057642;28;20231;-73
2021/09/10 10:51:49;;;;;;;9.40;6.57;;;;;;;26.55;54.69;96235.25;5058042;28;20203;-73
2021/09/10 10:54:17;;;;;;;12.30;6.65;;;;;;;26.66;54.05;96234.13;5057721;28;20205;-73
2021/09/10 10:56:47;;;;;;;10.10;6.43;;;;;;;26.54;52.93;96228.25;5057544;28;20590;-74
2021/09/10 10:59:30;;;;;;;8.75;6.25;;;;;;;26.99;52.38;96231.56;5058115;28;20571;-73
2021/09/10 11:02:36;;;;;;;12.77;6.93;;;;;;;27.19;52.72;96221.44;5057629;28;20207;-73
2021/09/10 11:05:26;;;;;;;11.52;6.35;;;;;;;26.99;51.70;96223.44;5057748;28;20197;-72
2021/09/10 11:07:53;;;;;;;13.32;6.20;;;;;;;26.49;51.92;96223.66;5055884;28;20220;-72
2021/09/10 11:10:20;;;;;;;8.13;6.20;;;;;;;27.06;52.98;96223.13;5058337;28;20680;-73
2021/09/10 11:12:49;;;;;;;9.88;5.90;;;;;;;27.34;52.03;96218.63;5055663;28;20580;-73
2021/09/10 11:15:21;;;;;;;8.95;5.63;;;;;;;26.90;47.46;96218.88;5056630;28;21121;-72
2021/09/10 11:17:59;;;;;;;9.90;6.28;;;;;;;27.76;48.82;96216.97;5058454;28;20338;-73
2021/09/10 11:20:30;;;;;;;10.00;5.85;;;;;;;27.54;48.78;96226.59;5057781;28;20196;-72
2021/09/10 11:22:57;;;;;;;7.88;5.68;;;;;;;27.52;47.48;96215.25;5054970;28;20200;-73